Time;durP1;ratioP1;P1;durP2;ratioP2;P2;SDS_P1;SDS_P2;PMS_P1;PMS_P2;Temp;Humidity;BMP_temperature;BMP_pressure;BME280_temperature;BME280_humidity;BME280_pressure;Samples;Min_cycle;Max_cycle;Signal;HPM_P1;HPM_P2
2023/03/19 00:02:10;;;;;;;37.80;19.47;;;;;;;;;;4982538;28;20691;-70
2023/03/19 00:04:44;;;;;;;39.10;18.87;;;;;;;;;;4983782;28;20224;-69
2023/03/19 00:07:11;;;;;;;37.03;18.67;;;;;;;;;;4986448;28;20235;-70
2023/03/19 00:09:37;;;;;;;37.47;18.80;;;;;;;;;;4958564;28;20223;-70
2023/03/19 00:12:04;;;;;;;37.97;17.77;;;;;;;;;;4985436;28;20455;-70
2023/03/19 00:14:31;;;;;;;33.33;17.97;;;;;;;;;;4983463;28;20311;-70
2023/03/19 00:16:58;;;;;;;36.27;19.27;;;;;;;;;;4985020;28;20231;-70
2023/03/19 00:19:25;;;;;;;31.80;17.63;;;;;;;;;;4981861;28;20994;-70
2023/03/19 00:21:51;;;;;;;34.87;18.93;;;;;;;;;;4982949;28;20447;-70
2023/03/19 00:24:19;;;;;;;33.83;18.70;;;;;;;;;;4968334;28;20533;-70
2023/03/19 00:26:46;;;;;;;38.10;19.60;;;;;;;;;;4983791;28;20274;-70
2023/03/19 00:29:13;;;;;;;31.77;17.50;;;;;;;;;;4986179;28;20220;-70
2023/03/19 00:31:40;;;;;;;31.50;18.00;;;;;;;;;;4951151;28;20240;-70
2023/03/19 00:34:08;;;;;;;33.67;18.47;;;;;;;;;;4986790;28;20463;-70
2023/03/19 00:36:34;;;;;;;37.80;19.23;;;;;;;;;;4980749;28;21060;-70
2023/03/19 00:39:01;;;;;;;37.00;19.03;;;;;;;;;;4984438;28;20525;-69
2023/03/19 00:41:29;;;;;;;36.87;19.17;;;;;;;;;;4982580;28;20687;-70
2023/03/19 00:43:56;;;;;;;32.73;17.93;;;;;;;;;;4981839;28;20462;-70
2023/03/19 00:46:23;;;;;;;35.37;18.30;;;;;;;;;;4962340;28;20472;-70
2023/03/19 00:48:52;;;;;;;37.50;18.37;;;;;;;;;;4977922;28;20698;-70
2023/03/19 00:51:19;;;;;;;41.37;20.23;;;;;;;;;;4980592;28;20239;-70
2023/03/19 00:53:46;;;;;;;40.60;21.00;;;;;;;;;;4966783;28;20581;-69
2023/03/19 00:56:12;;;;;;;40.50;21.93;;;;;;;;;;4965331;28;20471;-70
2023/03/19 00:58:42;;;;;;;49.73;24.53;;;;;;;;;;4986218;28;20235;-70
2023/03/19 01:01:09;;;;;;;39.70;20.80;;;;;;;;;;4980569;28;20454;-70
2023/03/19 01:03:36;;;;;;;47.13;23.80;;;;;;;;;;4983076;28;20535;-70
2023/03/19 01:06:04;;;;;;;44.80;23.47;;;;;;;;;;4964229;28;20509;-70
2023/03/19 01:08:30;;;;;;;45.80;22.57;;;;;;;;;;4964981;28;20281;-70
2023/03/19 01:11:03;;;;;;;44.00;21.93;;;;;;;;;;4983335;28;20250;-70
2023/03/19 01:13:31;;;;;;;51.83;23.43;;;;;;;;;;4965576;28;20451;-70
2023/03/19 01:15:57;;;;;;;72.23;30.63;;;;;;;;;;4981558;28;20873;-70
2023/03/19 01:18:24;;;;;;;49.67;25.40;;;;;;;;;;4980907;28;20463;-70
2023/03/19 01:20:51;;;;;;;52.50;24.83;;;;;;;;;;4964491;28;20453;-70
2023/03/19 01:23:18;;;;;;;52.00;25.33;;;;;;;;;;4961893;28;20473;-70
2023/03/19 01:25:45;;;;;;;40.47;21.47;;;;;;;;;;4983522;28;20989;-70
2023/03/19 01:28:12;;;;;;;52.87;22.23;;;;;;;;;;4964370;28;20223;-70
2023/03/19 01:30:39;;;;;;;46.03;21.63;;;;;;;;;;4986788;28;20462;-69
2023/03/19 01:33:12;;;;;;;37.27;18.70;;;;;;;;;;4963600;28;20480;-69
2023/03/19 01:35:58;;;;;;;40.97;19.97;;;;;;;;;;4963353;28;20499;-70
2023/03/19 01:38:29;;;;;;;35.17;18.67;;;;;;;;;;4968718;28;212818;-69
2023/03/19 01:41:01;;;;;;;40.37;19.63;;;;;;;;;;4947004;28;20995;-70
2023/03/19 02:16:08;;;;;;;38.40;18.07;;;;;;;;;;4991646;28;20460;-70
2023/03/19 02:18:39;;;;;;;35.00;16.90;;;;;;;;;;4979970;28;20458;-70
2023/03/19 02:21:06;;;;;;;31.87;16.73;;;;;;;;;;4992743;28;20526;-69
2023/03/19 02:23:35;;;;;;;32.30;17.50;;;;;;;;;;4978520;28;20479;-70
2023/03/19 02:26:13;;;;;;;31.17;16.73;;;;;;;;;;4983246;28;20831;-70
2023/03/19 02:28:42;;;;;;;31.27;16.13;;;;;;;;;;5002686;28;20870;-70
2023/03/19 02:31:11;;;;;;;34.20;17.20;;;;;;;;;;4982639;28;21063;-70
2023/03/19 02:33:38;;;;;;;35.13;18.30;;;;;;;;;;4987699;28;20526;-69
2023/03/19 02:36:05;;;;;;;37.27;18.83;;;;;;;;;;4987344;28;20502;-69
2023/03/19 02:38:32;;;;;;;32.80;16.70;;;;;;;;;;4983019;28;20480;-69
2023/03/19 02:40:59;;;;;;;35.17;17.73;;;;;;;;;;4982998;28;20466;-70
2023/03/19 02:43:26;;;;;;;34.40;16.90;;;;;;;;;;4985212;28;24209;-70
2023/03/19 02:45:53;;;;;;;29.87;16.10;;;;;;;;;;4983457;28;20552;-70
2023/03/19 02:48:20;;;;;;;31.07;16.40;;;;;;;;;;4982906;28;20582;-70
2023/03/19 02:50:47;;;;;;;29.63;15.13;;;;;;;;;;4986139;28;20958;-70
2023/03/19 02:53:14;;;;;;;28.57;15.87;;;;;;;;;;4968382;28;20465;-69
2023/03/19 02:55:41;;;;;;;34.20;16.00;;;;;;;;;;4980719;28;20462;-70
2023/03/19 02:58:08;;;;;;;30.70;16.40;;;;;;;;;;4981364;28;24112;-70
2023/03/19 03:00:34;;;;;;;30.63;16.27;;;;;;;;;;4976804;28;20462;-70
2023/03/19 03:03:02;;;;;;;28.23;15.67;;;;;;;;;;4984037;28;20650;-70
2023/03/19 03:05:28;;;;;;;31.10;15.67;;;;;;;;;;5001499;28;20866;-70
2023/03/19 03:07:55;;;;;;;31.07;17.03;;;;;;;;;;4980501;28;20474;-70
2023/03/19 03:10:22;;;;;;;28.37;15.80;;;;;;;;;;4985955;28;20521;-69
2023/03/19 03:12:48;;;;;;;26.90;15.27;;;;;;;;;;4982433;28;20459;-70
2023/03/19 03:15:15;;;;;;;28.10;16.23;;;;;;;;;;4986214;28;20494;-70
2023/03/19 03:17:42;;;;;;;28.63;16.07;;;;;;;;;;4983319;28;20521;-70
2023/03/19 03:20:10;;;;;;;28.70;15.83;;;;;;;;;;4988725;28;20595;-70
2023/03/19 03:22:39;;;;;;;27.87;16.10;;;;;;;;;;4986749;28;20473;-70
2023/03/19 03:25:06;;;;;;;34.17;17.23;;;;;;;;;;4965499;28;20473;-69
2023/03/19 03:27:32;;;;;;;30.77;17.77;;;;;;;;;;4966413;28;20866;-70
2023/03/19 03:29:59;;;;;;;32.03;17.00;;;;;;;;;;4985806;28;20474;-70
2023/03/19 03:32:26;;;;;;;33.07;18.20;;;;;;;;;;4968484;28;20228;-70
2023/03/19 03:34:53;;;;;;;31.43;16.93;;;;;;;;;;4985907;28;20465;-70
2023/03/19 03:37:20;;;;;;;30.00;17.47;;;;;;;;;;4969000;28;21024;-70
2023/03/19 03:39:47;;;;;;;31.30;18.10;;;;;;;;;;4970500;28;20450;-70
2023/03/19 03:42:14;;;;;;;32.80;17.13;;;;;;;;;;4962278;28;20458;-70
2023/03/19 03:44:41;;;;;;;29.63;16.93;;;;;;;;;;4965786;28;20423;-69
2023/03/19 03:47:07;;;;;;;29.93;17.27;;;;;;;;;;4948185;28;20866;-70
2023/03/19 03:49:34;;;;;;;33.30;18.00;;;;;;;;;;4968012;28;20474;-70
2023/03/19 03:52:01;;;;;;;31.97;17.00;;;;;;;;;;4983494;28;20318;-69
2023/03/19 03:54:28;;;;;;;31.77;17.67;;;;;;;;;;4967024;28;20814;-70
2023/03/19 03:56:55;;;;;;;32.83;17.60;;;;;;;;;;4965259;28;20459;-70
2023/03/19 03:59:23;;;;;;;31.27;17.17;;;;;;;;;;4965955;28;20579;-70
2023/03/19 04:01:50;;;;;;;31.63;17.60;;;;;;;;;;4982244;28;20476;-70
2023/03/19 04:04:17;;;;;;;30.57;17.60;;;;;;;;;;4966821;28;20438;-70
2023/03/19 04:06:44;;;;;;;33.77;18.17;;;;;;;;;;4969532;28;20469;-69
2023/03/19 04:09:18;;;;;;;29.67;16.17;;;;;;;;;;4966180;28;20451;-69
2023/03/19 04:11:45;;;;;;;33.63;17.57;;;;;;;;;;4965367;28;20489;-70
2023/03/19 04:14:13;;;;;;;36.27;18.63;;;;;;;;;;4983593;28;20473;-70
2023/03/19 04:16:40;;;;;;;36.13;19.47;;;;;;;;;;4967184;28;20472;-70
2023/03/19 04:19:06;;;;;;;34.33;17.63;;;;;;;;;;4983262;28;20248;-70
2023/03/19 04:21:33;;;;;;;32.73;17.03;;;;;;;;;;4966903;28;20468;-69
2023/03/19 04:24:01;;;;;;;34.43;18.40;;;;;;;;;;4963587;28;20450;-70
2023/03/19 04:26:28;;;;;;;34.80;17.53;;;;;;;;;;4964109;28;20970;-70
2023/03/19 04:28:56;;;;;;;42.17;20.43;;;;;;;;;;4984360;28;20459;-70
2023/03/19 04:31:23;;;;;;;31.83;18.33;;;;;;;;;;4946140;28;20487;-70
2023/03/19 04:33:49;;;;;;;32.20;18.40;;;;;;;;;;4965706;28;20487;-70
2023/03/19 04:36:16;;;;;;;36.40;19.30;;;;;;;;;;4963159;28;20547;-70
2023/03/19 04:38:43;;;;;;;41.77;21.63;;;;;;;;;;4965748;28;20480;-70
2023/03/19 04:41:10;;;;;;;37.67;20.70;;;;;;;;;;4982575;28;20537;-70
2023/03/19 04:43:43;;;;;;;43.60;22.17;;;;;;;;;;4965119;28;20461;-69
2023/03/19 04:46:10;;;;;;;42.27;21.10;;;;;;;;;;4967020;28;23647;-70
2023/03/19 04:48:38;;;;;;;37.03;20.93;;;;;;;;;;4983157;28;20455;-70
2023/03/19 04:51:07;;;;;;;47.33;22.67;;;;;;;;;;4965210;28;20482;-70
2023/03/19 04:53:35;;;;;;;44.40;23.40;;;;;;;;;;4966110;28;21046;-70
2023/03/19 04:56:01;;;;;;;47.83;23.53;;;;;;;;;;4982992;28;20258;-70
2023/03/19 04:58:29;;;;;;;42.90;22.37;;;;;;;;;;4965951;28;20855;-70
2023/03/19 05:01:00;;;;;;;40.87;21.63;;;;;;;;;;4964307;28;20866;-70
2023/03/19 05:03:47;;;;;;;49.47;24.07;;;;;;;;;;4984082;28;21405;-70
2023/03/19 05:06:15;;;;;;;52.93;26.13;;;;;;;;;;4959765;28;20466;-70
2023/03/19 05:08:42;;;;;;;51.60;24.93;;;;;;;;;;4947031;28;20490;-69
2023/03/19 05:11:09;;;;;;;47.43;24.50;;;;;;;;;;4943865;28;20469;-68
2023/03/19 05:13:52;;;;;;;48.90;23.07;;;;;;;;;;4961204;28;20241;-69
2023/03/19 05:16:19;;;;;;;44.87;22.63;;;;;;;;;;4948267;28;20544;-68
2023/03/19 05:18:46;;;;;;;43.73;22.93;;;;;;;;;;4974791;28;20681;-69
2023/03/19 05:21:13;;;;;;;41.83;21.57;;;;;;;;;;4980639;28;20511;-68
2023/03/19 05:23:41;;;;;;;43.63;22.70;;;;;;;;;;4978474;28;20593;-68
2023/03/19 05:26:08;;;;;;;41.97;21.83;;;;;;;;;;4980392;28;20456;-70
2023/03/19 05:28:55;;;;;;;46.37;23.60;;;;;;;;;;4976924;28;20858;-70
2023/03/19 05:31:32;;;;;;;45.30;23.13;;;;;;;;;;4962402;28;20477;-68
2023/03/19 05:33:59;;;;;;;41.50;22.43;;;;;;;;;;4963474;28;20533;-69
2023/03/19 05:36:28;;;;;;;43.27;24.90;;;;;;;;;;4979192;28;20958;-71
2023/03/19 05:39:05;;;;;;;48.53;23.03;;;;;;;;;;4987157;28;20548;-69
2023/03/19 05:41:35;;;;;;;43.57;22.17;;;;;;;;;;4981578;28;20455;-69
2023/03/19 05:44:04;;;;;;;46.70;23.53;;;;;;;;;;4983462;28;20520;-69
2023/03/19 05:47:07;;;;;;;43.50;21.93;;;;;;;;;;4904061;29;20636;-68
2023/03/19 05:49:40;;;;;;;41.47;20.73;;;;;;;;;;4984593;28;20458;-68
2023/03/19 05:52:07;;;;;;;35.53;20.17;;;;;;;;;;4980457;28;20549;-68
2023/03/19 05:54:35;;;;;;;37.37;19.13;;;;;;;;;;4984173;28;20236;-67
2023/03/19 05:57:25;;;;;;;30.90;17.43;;;;;;;;;;4978800;28;20473;-67
2023/03/19 06:00:05;;;;;;;32.47;18.47;;;;;;;;;;4967647;28;20502;-69
2023/03/19 06:02:32;;;;;;;35.83;19.20;;;;;;;;;;4970695;28;20459;-67
2023/03/19 06:05:13;;;;;;;39.17;21.17;;;;;;;;;;4983918;28;20473;-68
2023/03/19 06:07:40;;;;;;;45.43;23.00;;;;;;;;;;4984182;28;20463;-68
2023/03/19 06:10:14;;;;;;;41.90;21.53;;;;;;;;;;4970818;28;20537;-69
2023/03/19 06:12:41;;;;;;;45.27;23.00;;;;;;;;;;4984275;28;23525;-69
2023/03/19 06:15:27;;;;;;;38.53;21.30;;;;;;;;;;4985013;28;20587;-70
2023/03/19 06:18:08;;;;;;;37.73;21.37;;;;;;;;;;4965939;28;20823;-70
2023/03/19 06:20:35;;;;;;;44.40;23.40;;;;;;;;;;4966452;28;20237;-68
2023/03/19 06:23:02;;;;;;;39.27;21.13;;;;;;;;;;4982151;28;20231;-70
2023/03/19 06:25:29;;;;;;;41.20;21.50;;;;;;;;;;4985783;28;20466;-70
2023/03/19 06:27:56;;;;;;;34.67;20.40;;;;;;;;;;4981197;28;20463;-68
2023/03/19 06:30:34;;;;;;;43.57;21.53;;;;;;;;;;4976460;28;20236;-68
2023/03/19 06:33:06;;;;;;;46.00;22.97;;;;;;;;;;4982597;28;20679;-69
2023/03/19 06:35:33;;;;;;;36.17;21.20;;;;;;;;;;4983599;28;20470;-68
2023/03/19 06:38:01;;;;;;;38.00;21.33;;;;;;;;;;4981641;28;20675;-69
2023/03/19 06:40:27;;;;;;;38.47;21.80;;;;;;;;;;5000524;28;20232;-69
2023/03/19 06:42:54;;;;;;;39.60;20.43;;;;;;;;;;4971876;28;20235;-70
2023/03/19 06:45:21;;;;;;;33.77;19.73;;;;;;;;;;4984339;28;20248;-70
2023/03/19 06:47:47;;;;;;;33.93;20.00;;;;;;;;;;4982626;28;20239;-72
2023/03/19 06:50:15;;;;;;;32.97;19.07;;;;;;;;;;4983768;28;20236;-69
2023/03/19 06:52:41;;;;;;;35.50;20.70;;;;;;;;;;4960492;28;20236;-71
2023/03/19 06:55:08;;;;;;;37.73;20.67;;;;;;;;;;4985937;28;20314;-70
2023/03/19 06:57:35;;;;;;;35.80;20.60;;;;;;;;;;4983006;28;20710;-71
2023/03/19 07:00:02;;;;;;;38.53;21.23;;;;;;;;;;4999272;28;20707;-72
2023/03/19 07:02:30;;;;;;;40.37;22.60;;;;;;;;;;4983145;28;20294;-71
2023/03/19 07:04:57;;;;;;;47.97;26.13;;;;;;;;;;4983219;28;20235;-71
2023/03/19 07:07:23;;;;;;;48.33;26.60;;;;;;;;;;4985072;28;20236;-70
2023/03/19 07:09:50;;;;;;;46.47;24.97;;;;;;;;;;4970533;28;20729;-72
2023/03/19 07:12:17;;;;;;;40.83;22.63;;;;;;;;;;4967182;28;20230;-75
2023/03/19 07:14:44;;;;;;;45.30;25.53;;;;;;;;;;4983300;28;20228;-73
2023/03/19 07:17:11;;;;;;;46.53;26.33;;;;;;;;;;4938730;28;20233;-73
2023/03/19 07:19:38;;;;;;;45.40;25.73;;;;;;;;;;4975843;28;20227;-74
2023/03/19 07:22:04;;;;;;;49.33;28.27;;;;;;;;;;4951859;28;20235;-74
2023/03/19 07:24:31;;;;;;;41.40;27.27;;;;;;;;;;4983031;28;20286;-72
2023/03/19 07:26:58;;;;;;;48.53;27.70;;;;;;;;;;4980976;28;20274;-73
2023/03/19 07:29:25;;;;;;;48.63;31.17;;;;;;;;;;4981036;28;20311;-74
2023/03/19 07:31:51;;;;;;;49.80;29.63;;;;;;;;;;4966060;28;20239;-73
2023/03/19 07:34:18;;;;;;;50.93;31.57;;;;;;;;;;4982509;28;20258;-74
2023/03/19 07:36:46;;;;;;;50.40;28.57;;;;;;;;;;4980675;28;20243;-72
2023/03/19 07:39:12;;;;;;;48.00;29.07;;;;;;;;;;4982628;28;20235;-72
2023/03/19 07:41:39;;;;;;;48.93;28.77;;;;;;;;;;4980250;28;20282;-72
2023/03/19 07:44:11;;;;;;;66.37;38.30;;;;;;;;;;4983715;28;20231;-72
2023/03/19 07:46:38;;;;;;;84.90;43.17;;;;;;;;;;4987322;28;20231;-72
2023/03/19 07:49:05;;;;;;;76.03;41.30;;;;;;;;;;4982293;28;20223;-70
2023/03/19 07:51:32;;;;;;;60.43;35.20;;;;;;;;;;4974145;28;21047;-72
2023/03/19 07:54:02;;;;;;;47.77;29.63;;;;;;;;;;4982237;28;20228;-71
2023/03/19 07:56:30;;;;;;;44.57;28.03;;;;;;;;;;4968489;28;20350;-68
2023/03/19 07:58:58;;;;;;;42.90;26.93;;;;;;;;;;4980195;28;20306;-67
2023/03/19 08:01:25;;;;;;;48.20;28.53;;;;;;;;;;4981755;28;20382;-69
2023/03/19 08:03:52;;;;;;;43.73;27.10;;;;;;;;;;4967402;28;20297;-69
2023/03/19 08:06:19;;;;;;;39.47;25.23;;;;;;;;;;4952664;28;20235;-69
2023/03/19 08:08:46;;;;;;;38.50;24.97;;;;;;;;;;4980276;28;20231;-69
2023/03/19 08:11:13;;;;;;;40.20;25.27;;;;;;;;;;4984345;28;20231;-68
2023/03/19 08:13:41;;;;;;;38.47;25.37;;;;;;;;;;4971265;28;20290;-67
2023/03/19 08:16:08;;;;;;;37.30;24.70;;;;;;;;;;4948290;28;20239;-69
2023/03/19 08:18:35;;;;;;;32.73;23.30;;;;;;;;;;4978718;28;20228;-70
2023/03/19 08:21:02;;;;;;;35.87;23.17;;;;;;;;;;4956682;28;20223;-71
2023/03/19 08:23:29;;;;;;;32.77;21.57;;;;;;;;;;4967207;28;20718;-71
2023/03/19 08:25:56;;;;;;;32.17;21.57;;;;;;;;;;4961375;28;20239;-71
2023/03/19 08:28:23;;;;;;;34.63;21.50;;;;;;;;;;4982676;28;20232;-72
2023/03/19 08:30:50;;;;;;;33.17;21.83;;;;;;;;;;4961115;28;20350;-71
2023/03/19 08:33:16;;;;;;;32.63;20.47;;;;;;;;;;4966827;28;20243;-69
2023/03/19 08:35:43;;;;;;;25.40;16.40;;;;;;;;;;4962686;28;20355;-70
2023/03/19 08:38:10;;;;;;;22.20;13.13;;;;;;;;;;4958230;28;224383;-70
2023/03/19 08:40:37;;;;;;;25.67;16.20;;;;;;;;;;4966388;28;20596;-69
2023/03/19 08:43:05;;;;;;;23.70;15.43;;;;;;;;;;4980445;28;20242;-69
2023/03/19 08:45:32;;;;;;;25.03;16.57;;;;;;;;;;4964612;28;21291;-68
2023/03/19 08:47:59;;;;;;;26.43;17.20;;;;;;;;;;4966814;28;20310;-72
2023/03/19 08:50:26;;;;;;;20.87;14.13;;;;;;;;;;4975691;28;20603;-68
2023/03/19 08:52:53;;;;;;;25.60;16.30;;;;;;;;;;4980010;28;20227;-69
2023/03/19 08:55:21;;;;;;;24.20;16.00;;;;;;;;;;4981573;28;20231;-69
2023/03/19 08:57:47;;;;;;;27.67;16.20;;;;;;;;;;4978534;28;20730;-70
2023/03/19 09:00:14;;;;;;;23.30;14.93;;;;;;;;;;4985683;28;20235;-69
2023/03/19 09:02:41;;;;;;;23.23;14.90;;;;;;;;;;4977991;28;20223;-70
2023/03/19 09:05:08;;;;;;;23.97;13.23;;;;;;;;;;4984081;28;20322;-69
2023/03/19 09:07:35;;;;;;;21.97;13.73;;;;;;;;;;4982521;28;20228;-69
2023/03/19 09:10:02;;;;;;;21.67;11.73;;;;;;;;;;4983241;28;20228;-69
2023/03/19 09:12:29;;;;;;;17.73;11.60;;;;;;;;;;4980136;28;20607;-69
2023/03/19 09:14:55;;;;;;;17.97;11.30;;;;;;;;;;4983780;28;20231;-69
2023/03/19 09:17:22;;;;;;;18.80;11.07;;;;;;;;;;4966722;28;20232;-70
2023/03/19 09:19:49;;;;;;;16.33;10.67;;;;;;;;;;4982282;28;20262;-70
2023/03/19 09:22:16;;;;;;;16.27;10.30;;;;;;;;;;4981619;28;20365;-70
2023/03/19 09:24:42;;;;;;;15.40;10.47;;;;;;;;;;4986368;28;20295;-70
2023/03/19 09:27:09;;;;;;;16.87;11.67;;;;;;;;;;4982505;28;20232;-70
2023/03/19 09:29:36;;;;;;;17.17;10.47;;;;;;;;;;4984229;28;20228;-68
2023/03/19 09:32:03;;;;;;;16.13;9.80;;;;;;;;;;4980454;28;20224;-70
2023/03/19 09:34:30;;;;;;;17.73;10.73;;;;;;;;;;4983432;28;20634;-69
2023/03/19 09:36:57;;;;;;;14.27;10.03;;;;;;;;;;4982106;28;20228;-69
2023/03/19 09:39:23;;;;;;;16.73;10.60;;;;;;;;;;4984084;28;20250;-69
2023/03/19 09:42:02;;;;;;;17.00;11.17;;;;;;;;;;4981565;28;20232;-70
2023/03/19 09:44:33;;;;;;;17.10;10.63;;;;;;;;;;4983061;28;20227;-69
2023/03/19 09:47:09;;;;;;;18.17;11.80;;;;;;;;;;4960019;28;20245;-70
2023/03/19 09:49:46;;;;;;;17.93;12.27;;;;;;;;;;4981995;28;20228;-70
2023/03/19 09:52:31;;;;;;;17.57;10.47;;;;;;;;;;4965456;28;20223;-69
2023/03/19 09:55:00;;;;;;;14.53;9.37;;;;;;;;;;4983693;28;20906;-69
2023/03/19 09:57:28;;;;;;;18.37;10.60;;;;;;;;;;4961482;28;20223;-69
2023/03/19 09:59:55;;;;;;;16.63;9.70;;;;;;;;;;4980604;28;20239;-69
2023/03/19 10:02:41;;;;;;;15.27;9.67;;;;;;;;;;4960690;28;20311;-69
2023/03/19 10:05:20;;;;;;;14.00;9.17;;;;;;;;;;4951676;28;20286;-69
2023/03/19 10:07:47;;;;;;;15.83;9.57;;;;;;;;;;4967176;28;217934;-69
2023/03/19 10:10:17;;;;;;;16.60;10.33;;;;;;;;;;4966018;28;20231;-69
2023/03/19 10:12:47;;;;;;;14.00;9.57;;;;;;;;;;4962609;28;20231;-69
2023/03/19 10:15:17;;;;;;;14.03;9.10;;;;;;;;;;4961442;28;32468;-69
2023/03/19 10:17:47;;;;;;;16.03;9.23;;;;;;;;;;4978850;28;20224;-69
2023/03/19 10:20:26;;;;;;;13.97;9.03;;;;;;;;;;4985953;28;20239;-69
2023/03/19 10:22:54;;;;;;;13.47;8.10;;;;;;;;;;4980208;28;20227;-69
2023/03/19 10:25:21;;;;;;;11.60;7.80;;;;;;;;;;4988200;28;20237;-70
2023/03/19 10:27:49;;;;;;;14.73;7.77;;;;;;;;;;4993415;28;20223;-69
2023/03/19 10:30:16;;;;;;;12.93;7.87;;;;;;;;;;4980871;28;20228;-69
2023/03/19 10:32:44;;;;;;;12.47;7.90;;;;;;;;;;4979208;28;20243;-68
2023/03/19 10:35:16;;;;;;;14.47;8.20;;;;;;;;;;4984093;28;20605;-69
2023/03/19 10:37:42;;;;;;;12.43;7.10;;;;;;;;;;4983720;28;20227;-69
2023/03/19 10:40:36;;;;;;;10.57;7.23;;;;;;;;;;4954735;28;20961;-69
2023/03/19 10:43:12;;;;;;;12.27;7.17;;;;;;;;;;4986217;28;20231;-69
2023/03/19 10:45:38;;;;;;;11.43;7.07;;;;;;;;;;4970956;28;20238;-69
2023/03/19 10:48:05;;;;;;;12.77;6.87;;;;;;;;;;4972262;28;20230;-69
2023/03/19 10:50:36;;;;;;;11.57;6.83;;;;;;;;;;4985086;28;20355;-69
2023/03/19 10:53:05;;;;;;;10.03;6.60;;;;;;;;;;4991231;28;20235;-69
2023/03/19 10:55:32;;;;;;;11.93;5.93;;;;;;;;;;4988539;28;21277;-68
2023/03/19 10:58:06;;;;;;;13.43;7.10;;;;;;;;;;4972055;28;20231;-68
2023/03/19 11:00:34;;;;;;;13.17;6.93;;;;;;;;;;4989358;28;20232;-69
2023/03/19 11:03:04;;;;;;;12.10;6.47;;;;;;;;;;4985327;28;20319;-71
2023/03/19 11:05:32;;;;;;;13.87;6.90;;;;;;;;;;4984538;28;20220;-67
2023/03/19 11:08:06;;;;;;;10.23;6.67;;;;;;;;;;4986411;28;20242;-68
2023/03/19 11:10:33;;;;;;;10.97;6.83;;;;;;;;;;4980239;28;20676;-68
2023/03/19 11:13:04;;;;;;;12.57;7.33;;;;;;;;;;4967819;28;20694;-67
2023/03/19 11:15:37;;;;;;;11.27;6.53;;;;;;;;;;4977118;28;20742;-68
2023/03/19 11:18:15;;;;;;;9.43;6.60;;;;;;;;;;4989609;28;20235;-67
2023/03/19 11:20:42;;;;;;;9.63;6.13;;;;;;;;;;4986207;28;20338;-69
2023/03/19 11:23:16;;;;;;;10.30;6.23;;;;;;;;;;5003440;28;20227;-68
2023/03/19 11:25:46;;;;;;;10.03;5.73;;;;;;;;;;4981927;28;20224;-68
2023/03/19 11:28:16;;;;;;;8.07;6.20;;;;;;;;;;4976322;28;20237;-69
2023/03/19 11:31:06;;;;;;;11.27;6.47;;;;;;;;;;4988546;28;20231;-69
2023/03/19 11:33:37;;;;;;;10.80;6.80;;;;;;;;;;4971827;28;20269;-71
2023/03/19 11:36:06;;;;;;;9.83;6.60;;;;;;;;;;4986985;28;20239;-69
2023/03/19 11:38:47;;;;;;;10.50;7.00;;;;;;;;;;4989644;28;20309;-69
2023/03/19 11:41:24;;;;;;;9.77;6.97;;;;;;;;;;4983584;28;20231;-69
2023/03/19 11:43:55;;;;;;;12.30;6.80;;;;;;;;;;4984409;28;20698;-69
2023/03/19 11:46:43;;;;;;;12.40;6.63;;;;;;;;;;4990939;28;20224;-70
2023/03/19 11:49:10;;;;;;;9.97;7.00;;;;;;;;;;4990551;28;20231;-69
2023/03/19 11:52:01;;;;;;;11.63;6.43;;;;;;;;;;4983472;28;20682;-69
2023/03/19 11:54:34;;;;;;;11.20;6.17;;;;;;;;;;4968013;28;20808;-69
2023/03/19 11:57:02;;;;;;;12.67;7.13;;;;;;;;;;4995346;28;20237;-69
2023/03/19 11:59:32;;;;;;;11.23;6.30;;;;;;;;;;4986851;28;20232;-68
2023/03/19 12:01:58;;;;;;;10.17;6.30;;;;;;;;;;4985902;28;20223;-68
2023/03/19 12:04:26;;;;;;;9.90;6.43;;;;;;;;;;4982105;28;20638;-67
2023/03/19 12:06:59;;;;;;;8.93;6.17;;;;;;;;;;4991685;28;32752;-65
2023/03/19 12:09:26;;;;;;;9.30;5.73;;;;;;;;;;4983598;28;20227;-67
2023/03/19 12:11:54;;;;;;;9.47;5.83;;;;;;;;;;4982838;28;20296;-66
2023/03/19 12:14:29;;;;;;;11.33;6.30;;;;;;;;;;4978971;28;20224;-65
2023/03/19 12:17:06;;;;;;;10.50;6.03;;;;;;;;;;4997783;28;20263;-68
2023/03/19 12:19:52;;;;;;;11.10;6.30;;;;;;;;;;4964228;28;20245;-66
2023/03/19 12:22:22;;;;;;;9.83;7.07;;;;;;;;;;4983009;28;20223;-67
2023/03/19 12:24:51;;;;;;;10.57;6.00;;;;;;;;;;4982382;28;20298;-65
2023/03/19 12:27:36;;;;;;;9.67;5.87;;;;;;;;;;4967952;28;20224;-65
2023/03/19 12:30:03;;;;;;;7.73;5.50;;;;;;;;;;4979874;28;20231;-68
2023/03/19 12:32:34;;;;;;;9.03;5.63;;;;;;;;;;4983840;28;20254;-68
2023/03/19 12:35:02;;;;;;;6.93;5.30;;;;;;;;;;4954944;28;20718;-67
2023/03/19 12:37:31;;;;;;;8.77;5.37;;;;;;;;;;4973404;28;20590;-68
2023/03/19 12:40:06;;;;;;;8.70;6.07;;;;;;;;;;4969283;28;20240;-70
2023/03/19 12:42:37;;;;;;;8.00;5.30;;;;;;;;;;4987302;28;20240;-68
2023/03/19 12:45:05;;;;;;;8.47;4.73;;;;;;;;;;4945299;28;20738;-67
2023/03/19 12:47:33;;;;;;;10.67;6.30;;;;;;;;;;4976904;28;20286;-67
2023/03/19 12:50:00;;;;;;;10.63;5.87;;;;;;;;;;4960500;28;20533;-67
2023/03/19 12:52:33;;;;;;;8.50;5.50;;;;;;;;;;4983458;28;20227;-66
2023/03/19 12:55:19;;;;;;;7.63;4.83;;;;;;;;;;4972997;28;20238;-66
2023/03/19 12:57:46;;;;;;;8.50;5.63;;;;;;;;;;4974823;28;20322;-66
2023/03/19 13:00:12;;;;;;;8.97;5.30;;;;;;;;;;4980697;28;20231;-67
2023/03/19 13:02:39;;;;;;;7.57;4.83;;;;;;;;;;4969648;28;20235;-65
2023/03/19 13:05:21;;;;;;;7.67;4.43;;;;;;;;;;4984534;28;20231;-63
2023/03/19 13:08:07;;;;;;;11.87;5.33;;;;;;;;;;4981035;28;20318;-65
2023/03/19 13:10:34;;;;;;;7.53;4.73;;;;;;;;;;4998298;28;20326;-64
2023/03/19 13:13:01;;;;;;;7.37;4.60;;;;;;;;;;4960033;28;20305;-64
2023/03/19 13:15:32;;;;;;;9.17;4.70;;;;;;;;;;4993929;28;20271;-64
2023/03/19 13:18:02;;;;;;;9.27;4.87;;;;;;;;;;4987669;28;20249;-66
2023/03/19 13:20:37;;;;;;;10.53;4.87;;;;;;;;;;4992946;28;20321;-64
2023/03/19 13:23:04;;;;;;;9.53;5.07;;;;;;;;;;4966783;28;20222;-64
2023/03/19 13:25:32;;;;;;;8.80;5.10;;;;;;;;;;4984509;28;20248;-65
2023/03/19 13:27:59;;;;;;;9.87;4.63;;;;;;;;;;4933328;28;20708;-64
2023/03/19 13:30:26;;;;;;;7.80;4.73;;;;;;;;;;4976876;28;20234;-64
2023/03/19 13:33:02;;;;;;;7.87;4.40;;;;;;;;;;4983901;28;20298;-65
2023/03/19 13:35:45;;;;;;;8.63;4.43;;;;;;;;;;4981273;28;20235;-64
2023/03/19 13:38:23;;;;;;;7.80;4.73;;;;;;;;;;4956101;28;20322;-65
2023/03/19 13:40:51;;;;;;;8.27;4.90;;;;;;;;;;4980077;28;20726;-66
2023/03/19 13:43:26;;;;;;;10.43;5.63;;;;;;;;;;4982026;28;20227;-65
2023/03/19 13:46:14;;;;;;;7.93;5.00;;;;;;;;;;4981207;28;20219;-65
2023/03/19 13:48:44;;;;;;;9.53;6.80;;;;;;;;;;4964618;28;20322;-65
2023/03/19 13:51:11;;;;;;;8.97;5.43;;;;;;;;;;4963165;28;20232;-65
2023/03/19 13:54:02;;;;;;;9.43;4.93;;;;;;;;;;4964652;28;20259;-65
2023/03/19 13:56:29;;;;;;;17.47;11.70;;;;;;;;;;4940622;28;20232;-66
2023/03/19 13:59:11;;;;;;;9.63;6.00;;;;;;;;;;4948916;28;20294;-65
2023/03/19 14:01:38;;;;;;;8.43;4.73;;;;;;;;;;4953504;28;20240;-65
2023/03/19 14:04:05;;;;;;;6.70;4.60;;;;;;;;;;4970655;28;20236;-65
2023/03/19 14:06:44;;;;;;;11.90;7.93;;;;;;;;;;4987643;28;20232;-65
2023/03/19 14:09:29;;;;;;;11.97;7.60;;;;;;;;;;4968740;28;20238;-65
2023/03/19 14:12:07;;;;;;;12.93;7.67;;;;;;;;;;4986906;28;20247;-65
2023/03/19 14:14:38;;;;;;;8.03;5.60;;;;;;;;;;4968800;28;20228;-65
2023/03/19 14:17:08;;;;;;;11.93;8.10;;;;;;;;;;4970917;28;20228;-65
2023/03/19 14:19:39;;;;;;;9.93;5.80;;;;;;;;;;4968554;28;20683;-66
2023/03/19 14:22:17;;;;;;;8.40;5.10;;;;;;;;;;4986488;28;24024;-65
2023/03/19 14:25:22;;;;;;;9.23;4.80;;;;;;;;;;4986490;28;20259;-66
2023/03/19 14:27:50;;;;;;;6.93;4.23;;;;;;;;;;4905234;28;20235;-66
2023/03/19 14:30:16;;;;;;;10.00;6.57;;;;;;;;;;4907845;28;20234;-65
2023/03/19 14:32:46;;;;;;;11.47;6.50;;;;;;;;;;4944442;28;20719;-66
2023/03/19 14:35:15;;;;;;;8.67;5.03;;;;;;;;;;4968694;28;20231;-66
2023/03/19 14:37:43;;;;;;;7.80;4.30;;;;;;;;;;4982545;28;20584;-66
2023/03/19 14:40:10;;;;;;;9.10;4.93;;;;;;;;;;4966278;28;20803;-66
2023/03/19 14:42:38;;;;;;;10.23;4.77;;;;;;;;;;4968184;28;20764;-66
2023/03/19 14:45:05;;;;;;;16.03;10.53;;;;;;;;;;4966138;28;20232;-66
2023/03/19 14:47:40;;;;;;;23.63;17.10;;;;;;;;;;4953202;28;20588;-66
2023/03/19 14:50:15;;;;;;;13.43;10.23;;;;;;;;;;4965478;28;20228;-66
2023/03/19 14:52:46;;;;;;;5.97;3.57;;;;;;;;;;4985416;28;20227;-66
2023/03/19 14:55:13;;;;;;;5.13;3.40;;;;;;;;;;4981057;28;20315;-66
2023/03/19 14:57:42;;;;;;;9.10;5.37;;;;;;;;;;4968047;28;20221;-66
2023/03/19 15:00:13;;;;;;;10.03;5.00;;;;;;;;;;4974835;28;20310;-66
2023/03/19 15:02:40;;;;;;;11.03;5.17;;;;;;;;;;4985195;28;20236;-66
2023/03/19 15:05:08;;;;;;;13.53;7.33;;;;;;;;;;4985378;28;20669;-66
2023/03/19 15:07:39;;;;;;;17.43;11.77;;;;;;;;;;4986744;28;20286;-65
2023/03/19 15:10:06;;;;;;;18.07;12.03;;;;;;;;;;4967446;28;20224;-66
2023/03/19 15:12:54;;;;;;;20.43;12.70;;;;;;;;;;4967872;28;20934;-66